createdAt,value
2018-07-06T00:01:53.220Z,17.36
2018-07-06T00:04:39.701Z,17.28
2018-07-06T00:07:26.112Z,17.34
2018-07-06T00:10:12.509Z,17.38
2018-07-06T00:12:58.964Z,17.54
2018-07-06T00:15:45.179Z,17.58
2018-07-06T00:18:31.609Z,17.58
2018-07-06T00:21:18.163Z,17.59
2018-07-06T00:23:58.371Z,17.57
2018-07-06T00:26:44.814Z,17.56
2018-07-06T00:29:25.132Z,17.34
2018-07-06T00:32:11.419Z,17.41
2018-07-06T00:34:57.817Z,17.38
2018-07-06T00:37:44.316Z,17.48
2018-07-06T00:40:30.729Z,17.43
2018-07-06T00:43:17.139Z,17.51
2018-07-06T00:46:03.557Z,17.62
2018-07-06T00:48:49.951Z,17.64
2018-07-06T00:51:36.448Z,17.69
2018-07-06T00:54:22.936Z,17.63
2018-07-06T00:57:09.284Z,17.44
2018-07-06T00:59:49.662Z,17.33
2018-07-06T01:02:36.080Z,17.30
2018-07-06T01:05:22.449Z,17.22
2018-07-06T01:08:02.717Z,17.16
2018-07-06T01:10:49.132Z,17.14
2018-07-06T01:13:35.435Z,17.06
2018-07-06T01:16:21.715Z,17.06
2018-07-06T01:19:08.044Z,17.09
2018-07-06T01:21:54.452Z,16.89
2018-07-06T01:24:40.804Z,16.83
2018-07-06T01:27:27.265Z,16.86
2018-07-06T01:30:14.119Z,16.89
2018-07-06T01:32:54.517Z,16.85
2018-07-06T01:35:40.893Z,16.89
2018-07-06T01:38:27.096Z,16.92
2018-07-06T01:41:13.427Z,16.93
2018-07-06T01:43:59.977Z,16.98
2018-07-06T01:46:46.430Z,16.97
2018-07-06T01:49:32.831Z,17.00
2018-07-06T01:52:19.212Z,17.02
2018-07-06T01:55:05.635Z,17.00
2018-07-06T01:57:52.019Z,16.90
2018-07-06T02:00:38.544Z,16.86
2018-07-06T02:03:25.073Z,16.83
2018-07-06T02:06:11.448Z,16.84
2018-07-06T02:08:57.844Z,16.84
2018-07-06T02:11:44.285Z,16.81
2018-07-06T02:14:30.760Z,16.85
2018-07-06T02:17:17.505Z,16.81
2018-07-06T02:20:03.885Z,16.71
2018-07-06T02:22:50.116Z,16.70
2018-07-06T02:25:36.548Z,16.72
2018-07-06T02:28:23.078Z,16.63
2018-07-06T02:31:09.504Z,16.58
2018-07-06T02:33:55.942Z,16.62
2018-07-06T02:36:42.359Z,16.56
2018-07-06T02:39:28.740Z,16.65
2018-07-06T02:42:15.213Z,16.59
2018-07-06T02:45:01.699Z,16.59
2018-07-06T02:47:48.291Z,16.56
2018-07-06T02:50:34.557Z,16.58
2018-07-06T02:53:20.991Z,16.54
2018-07-06T02:56:07.473Z,16.50
2018-07-06T02:58:53.885Z,16.46
2018-07-06T03:01:40.413Z,16.45
2018-07-06T03:04:26.897Z,16.50
2018-07-06T03:07:13.306Z,16.50
2018-07-06T03:09:59.575Z,16.42
2018-07-06T03:12:45.984Z,16.37
2018-07-06T03:15:32.137Z,16.42
2018-07-06T03:18:12.331Z,16.37
2018-07-06T03:20:58.703Z,16.32
2018-07-06T03:23:45.184Z,16.34
2018-07-06T03:26:31.520Z,16.36
2018-07-06T03:29:18.197Z,16.44
2018-07-06T03:31:58.349Z,16.45
2018-07-06T03:34:44.808Z,16.43
2018-07-06T03:37:31.259Z,16.44
2018-07-06T03:40:11.743Z,16.36
2018-07-06T03:42:58.264Z,16.45
2018-07-06T03:45:44.719Z,16.38
2018-07-06T03:48:27.856Z,16.39
2018-07-06T03:51:14.265Z,16.39
2018-07-06T03:54:00.680Z,16.40
2018-07-06T03:56:47.199Z,16.41
2018-07-06T03:59:33.588Z,16.37
2018-07-06T04:02:19.899Z,16.37
2018-07-06T04:05:06.296Z,16.34
2018-07-06T04:07:52.955Z,16.42
2018-07-06T04:10:33.261Z,16.46
2018-07-06T04:13:19.664Z,16.45
2018-07-06T04:16:05.938Z,16.44
2018-07-06T04:18:56.573Z,16.41
2018-07-06T04:21:43.074Z,16.39
2018-07-06T04:24:30.133Z,16.36
2018-07-06T04:27:11.424Z,16.39
2018-07-06T04:29:57.724Z,16.42
2018-07-06T04:32:44.041Z,16.41
2018-07-06T04:35:30.391Z,16.45
2018-07-06T04:38:16.771Z,16.52
2018-07-06T04:41:03.260Z,16.51
2018-07-06T04:43:49.708Z,16.56
2018-07-06T04:46:36.151Z,16.56
2018-07-06T04:49:22.723Z,16.51
2018-07-06T04:52:09.007Z,16.55
2018-07-06T04:54:55.476Z,16.49
2018-07-06T04:57:41.979Z,16.47
2018-07-06T05:00:28.396Z,16.50
2018-07-06T05:03:15.034Z,16.48
2018-07-06T05:05:55.288Z,16.54
2018-07-06T05:08:41.605Z,16.58
2018-07-06T05:11:27.773Z,16.68
2018-07-06T05:14:14.113Z,16.61
2018-07-06T05:17:00.645Z,16.71
2018-07-06T05:19:47.084Z,16.70
2018-07-06T05:22:27.406Z,16.80
2018-07-06T05:25:13.903Z,16.83
2018-07-06T05:28:00.425Z,17.00
2018-07-06T05:30:46.900Z,16.99
2018-07-06T05:33:33.400Z,16.94
2018-07-06T05:36:19.902Z,16.94
2018-07-06T05:39:06.759Z,17.07
2018-07-06T05:41:53.219Z,17.09
2018-07-06T05:44:39.759Z,17.12
2018-07-06T05:47:26.181Z,17.14
2018-07-06T05:50:12.786Z,17.18
2018-07-06T05:52:53.075Z,17.23
2018-07-06T05:55:39.489Z,17.17
2018-07-06T05:58:26.003Z,17.23
2018-07-06T06:01:12.499Z,17.41
2018-07-06T06:03:58.905Z,17.59
2018-07-06T06:06:45.234Z,17.67
2018-07-06T06:09:14.676Z,17.69
2018-07-06T06:11:43.811Z,17.86
2018-07-06T06:14:12.940Z,17.97
2018-07-06T06:16:41.858Z,17.85
2018-07-06T06:19:11.010Z,17.92
2018-07-06T06:21:40.111Z,18.11
2018-07-06T06:24:09.239Z,18.19
2018-07-06T06:26:38.381Z,18.19
2018-07-06T06:29:07.519Z,18.25
2018-07-06T06:31:36.414Z,18.41
2018-07-06T06:34:05.549Z,18.42
2018-07-06T06:36:34.677Z,18.17
2018-07-06T06:39:09.327Z,18.23
2018-07-06T06:41:39.226Z,18.31
2018-07-06T06:44:08.708Z,18.32
2018-07-06T06:46:38.167Z,18.14
2018-07-06T06:49:07.608Z,18.25
2018-07-06T06:51:37.095Z,18.27
2018-07-06T06:54:06.538Z,18.24
2018-07-06T06:56:35.960Z,18.11
2018-07-06T06:59:05.454Z,18.07
2018-07-06T07:01:34.945Z,18.12
2018-07-06T07:04:04.393Z,18.06
2018-07-06T07:06:33.962Z,18.21
2018-07-06T07:09:04.589Z,18.29
2018-07-06T07:11:34.304Z,18.26
2018-07-06T07:14:03.896Z,18.54
2018-07-06T07:16:33.560Z,18.61
2018-07-06T07:19:03.203Z,18.80
2018-07-06T07:21:32.665Z,18.92
2018-07-06T07:24:02.133Z,18.88
2018-07-06T07:26:31.593Z,18.78
2018-07-06T07:29:01.306Z,18.84
2018-07-06T07:31:30.693Z,18.98
2018-07-06T07:34:00.228Z,18.88
2018-07-06T07:36:29.694Z,18.83
2018-07-06T07:38:59.217Z,18.83
2018-07-06T07:41:28.853Z,18.97
2018-07-06T07:43:58.394Z,19.05
2018-07-06T07:46:27.959Z,19.23
2018-07-06T07:48:57.402Z,19.29
2018-07-06T07:52:11.175Z,19.55
2018-07-06T07:54:47.732Z,19.63
2018-07-06T07:57:17.248Z,19.65
2018-07-06T07:59:47.127Z,19.91
2018-07-06T08:02:16.976Z,20.10
2018-07-06T08:04:47.894Z,20.46
2018-07-06T08:07:17.443Z,20.95
2018-07-06T08:09:47.034Z,20.81
2018-07-06T08:12:16.484Z,20.30
2018-07-06T08:14:46.046Z,20.22
2018-07-06T08:17:15.520Z,20.66
2018-07-06T08:19:45.170Z,20.70
2018-07-06T08:22:14.685Z,20.41
2018-07-06T08:24:44.177Z,20.60
2018-07-06T08:27:13.638Z,20.38
2018-07-06T08:29:43.158Z,20.25
2018-07-06T08:32:12.661Z,20.27
2018-07-06T08:34:59.010Z,20.88
2018-07-06T08:37:50.796Z,20.60
2018-07-06T08:40:21.246Z,20.65
2018-07-06T08:42:51.940Z,20.65
2018-07-06T08:45:21.448Z,20.45
2018-07-06T08:47:51.157Z,20.43
2018-07-06T08:50:20.599Z,21.09
2018-07-06T08:52:50.867Z,20.92
2018-07-06T08:55:20.442Z,20.83
2018-07-06T08:57:51.142Z,20.80
2018-07-06T09:00:20.401Z,21.11
2018-07-06T09:02:49.772Z,21.16
2018-07-06T09:05:19.037Z,21.20
2018-07-06T09:07:48.347Z,21.57
2018-07-06T09:10:17.629Z,21.47
2018-07-06T09:12:46.897Z,21.58
2018-07-06T09:15:16.191Z,21.36
2018-07-06T09:17:45.438Z,20.90
2018-07-06T09:20:14.769Z,20.93
2018-07-06T09:22:43.869Z,20.88
2018-07-06T09:25:13.040Z,20.53
2018-07-06T09:27:42.187Z,20.31
2018-07-06T09:30:11.325Z,20.68
2018-07-06T09:32:40.487Z,21.22
2018-07-06T09:35:09.639Z,20.84
2018-07-06T09:37:40.246Z,20.82
2018-07-06T09:40:10.148Z,20.83
2018-07-06T09:42:39.517Z,20.85
2018-07-06T09:45:08.955Z,21.13
2018-07-06T09:47:38.214Z,21.39
2018-07-06T09:50:07.468Z,21.20
2018-07-06T09:52:36.736Z,21.01
2018-07-06T09:55:05.929Z,21.07
2018-07-06T09:57:35.073Z,21.35
2018-07-06T10:00:04.644Z,21.23
2018-07-06T10:02:33.822Z,21.41
2018-07-06T10:05:02.973Z,21.53
2018-07-06T10:07:32.116Z,21.76
2018-07-06T10:10:01.287Z,21.97
2018-07-06T10:12:30.466Z,22.07
2018-07-06T10:14:59.609Z,22.41
2018-07-06T10:17:28.524Z,22.15
2018-07-06T10:19:57.682Z,22.12
2018-07-06T10:22:26.821Z,22.38
2018-07-06T10:24:55.995Z,22.53
2018-07-06T10:27:36.457Z,22.46
2018-07-06T10:31:18.836Z,22.60
2018-07-06T10:33:48.028Z,22.58
2018-07-06T10:36:17.134Z,22.61
2018-07-06T10:38:46.325Z,22.80
2018-07-06T10:41:15.486Z,22.78
2018-07-06T10:43:45.606Z,23.06
2018-07-06T10:46:15.019Z,23.01
2018-07-06T10:48:44.452Z,23.12
2018-07-06T10:51:13.868Z,22.53
2018-07-06T10:53:43.229Z,22.98
2018-07-06T10:56:12.593Z,23.08
2018-07-06T10:58:41.668Z,23.18
2018-07-06T11:01:11.120Z,23.46
2018-07-06T11:03:40.808Z,23.35
2018-07-06T11:06:10.229Z,23.53
2018-07-06T11:08:39.554Z,23.06
2018-07-06T11:11:08.955Z,23.61
2018-07-06T11:13:38.229Z,24.13
2018-07-06T11:16:07.609Z,24.29
2018-07-06T11:18:36.633Z,23.97
2018-07-06T11:21:05.973Z,24.24
2018-07-06T11:23:35.262Z,24.09
2018-07-06T11:26:04.707Z,23.81
2018-07-06T11:28:33.736Z,24.38
2018-07-06T11:31:03.075Z,24.80
2018-07-06T11:33:32.405Z,24.94
2018-07-06T11:36:01.651Z,25.29
2018-07-06T11:38:30.942Z,24.98
2018-07-06T11:41:00.295Z,24.65
2018-07-06T11:43:29.667Z,25.80
2018-07-06T11:45:58.919Z,25.95
2018-07-06T11:48:28.143Z,25.77
2018-07-06T11:50:57.349Z,26.63
2018-07-06T11:53:27.115Z,26.97
2018-07-06T11:55:56.447Z,26.03
2018-07-06T11:58:25.914Z,25.43
2018-07-06T12:00:55.060Z,25.39
2018-07-06T12:03:24.208Z,26.44
2018-07-06T12:05:53.351Z,25.43
2018-07-06T12:08:22.491Z,26.07
2018-07-06T12:10:51.631Z,26.06
2018-07-06T12:13:21.512Z,25.55
2018-07-06T12:15:51.526Z,25.94
2018-07-06T12:18:20.728Z,25.72
2018-07-06T12:20:49.876Z,25.13
2018-07-06T12:23:18.778Z,25.94
2018-07-06T12:25:47.936Z,26.63
2018-07-06T12:28:17.086Z,27.37
2018-07-06T12:30:46.231Z,27.57
2018-07-06T12:33:15.357Z,28.25
2018-07-06T12:35:44.497Z,27.78
2018-07-06T12:38:13.645Z,28.37
2018-07-06T12:40:42.821Z,26.85
2018-07-06T12:43:11.953Z,26.63
2018-07-06T12:45:41.108Z,27.94
2018-07-06T12:48:10.254Z,28.39
2018-07-06T12:50:39.457Z,28.75
2018-07-06T12:53:08.597Z,27.86
2018-07-06T12:55:37.753Z,28.68
2018-07-06T12:58:07.437Z,27.26
2018-07-06T13:00:36.295Z,26.83
2018-07-06T13:03:05.453Z,28.34
2018-07-06T13:05:34.597Z,28.72
2018-07-06T13:08:03.725Z,27.33
2018-07-06T13:10:32.905Z,26.87
2018-07-06T13:13:02.029Z,26.63
2018-07-06T13:15:31.163Z,27.82
2018-07-06T13:18:00.369Z,28.52
2018-07-06T13:20:29.508Z,26.40
2018-07-06T13:22:58.646Z,25.55
2018-07-06T13:25:27.776Z,25.36
2018-07-06T13:27:56.945Z,25.21
2018-07-06T13:30:26.072Z,24.94
2018-07-06T13:32:55.229Z,24.65
2018-07-06T13:35:24.364Z,25.49
2018-07-06T13:37:53.519Z,27.44
2018-07-06T13:40:22.662Z,27.49
2018-07-06T13:42:51.830Z,27.49
2018-07-06T13:45:20.973Z,26.22
2018-07-06T13:47:50.112Z,25.51
2018-07-06T13:50:19.250Z,25.12
2018-07-06T13:52:48.402Z,24.95
2018-07-06T13:55:17.541Z,26.00
2018-07-06T13:57:46.703Z,28.42
2018-07-06T14:00:15.838Z,28.37
2018-07-06T14:02:44.971Z,28.54
2018-07-06T14:05:14.113Z,28.14
2018-07-06T14:07:43.260Z,29.12
2018-07-06T14:10:12.375Z,28.40
2018-07-06T14:12:41.508Z,28.95
2018-07-06T14:15:10.937Z,29.41
2018-07-06T14:17:40.067Z,29.04
2018-07-06T14:20:09.197Z,29.42
2018-07-06T14:22:38.380Z,27.73
2018-07-06T14:25:07.244Z,26.18
2018-07-06T14:27:36.384Z,26.01
2018-07-06T14:30:05.645Z,25.89
2018-07-06T14:32:34.790Z,26.73
2018-07-06T14:35:03.998Z,27.80
2018-07-06T14:37:36.266Z,27.82
2018-07-06T14:40:05.417Z,28.39
2018-07-06T14:42:34.572Z,28.89
2018-07-06T14:45:03.704Z,25.94
2018-07-06T14:47:32.850Z,26.65
2018-07-06T14:50:01.998Z,26.37
2018-07-06T14:52:31.137Z,28.36
2018-07-06T14:55:00.269Z,27.06
2018-07-06T14:57:29.392Z,26.09
2018-07-06T14:59:58.540Z,25.49
2018-07-06T15:02:27.657Z,25.15
2018-07-06T15:04:56.567Z,25.23
2018-07-06T15:07:25.695Z,25.17
2018-07-06T15:09:54.833Z,24.95
2018-07-06T15:12:24.001Z,25.16
2018-07-06T15:14:53.138Z,25.05
2018-07-06T15:17:22.317Z,24.97
2018-07-06T15:19:51.236Z,25.10
2018-07-06T15:22:20.360Z,25.12
2018-07-06T15:24:49.515Z,25.03
2018-07-06T15:27:18.656Z,25.35
2018-07-06T15:29:47.802Z,26.43
2018-07-06T15:32:16.944Z,27.02
2018-07-06T15:34:46.072Z,27.86
2018-07-06T15:37:15.266Z,26.74
2018-07-06T15:39:44.408Z,28.14
2018-07-06T15:42:13.533Z,27.91
2018-07-06T15:44:42.667Z,27.96
2018-07-06T15:47:11.789Z,29.69
2018-07-06T15:49:40.964Z,30.06
2018-07-06T15:52:10.056Z,30.54
2018-07-06T15:54:38.963Z,30.67
2018-07-06T15:57:08.104Z,29.29
2018-07-06T15:59:37.237Z,28.83
2018-07-06T16:02:06.412Z,30.36
2018-07-06T16:04:36.558Z,29.09
2018-07-06T16:07:05.681Z,30.10
2018-07-06T16:09:34.826Z,29.32
2018-07-06T16:12:03.989Z,29.41
2018-07-06T16:14:40.928Z,29.22
2018-07-06T16:17:09.841Z,30.64
2018-07-06T16:19:38.991Z,29.03
2018-07-06T16:24:25.072Z,26.88
2018-07-06T16:26:54.291Z,27.10
2018-07-06T16:29:23.421Z,27.94
2018-07-06T16:31:52.632Z,26.55
2018-07-06T16:34:21.697Z,27.04
2018-07-06T16:36:50.842Z,26.92
2018-07-06T16:39:19.985Z,28.50
2018-07-06T16:41:49.421Z,27.84
2018-07-06T16:44:18.556Z,29.24
2018-07-06T16:46:47.797Z,29.33
2018-07-06T16:49:16.929Z,29.34
2018-07-06T16:51:46.081Z,26.55
2018-07-06T16:54:15.211Z,26.26
2018-07-06T16:56:44.377Z,28.50
2018-07-06T16:59:13.517Z,28.61
2018-07-06T17:01:42.666Z,28.23
2018-07-06T17:04:11.797Z,28.11
2018-07-06T17:06:40.986Z,29.30
2018-07-06T17:09:10.080Z,28.50
2018-07-06T17:11:39.239Z,28.66
2018-07-06T17:14:08.377Z,28.36
2018-07-06T17:16:37.512Z,28.16
2018-07-06T17:19:06.637Z,28.25
2018-07-06T17:21:37.962Z,27.32
2018-07-06T17:24:07.207Z,27.90
2018-07-06T17:26:36.348Z,27.56
2018-07-06T17:29:05.509Z,27.73
2018-07-06T17:31:34.710Z,27.30
2018-07-06T17:34:03.790Z,26.93
2018-07-06T17:36:32.712Z,27.64
2018-07-06T17:39:01.870Z,27.33
2018-07-06T17:41:30.797Z,27.38
2018-07-06T17:43:59.937Z,27.14
2018-07-06T17:46:29.088Z,26.70
2018-07-06T17:48:58.233Z,26.76
2018-07-06T17:51:27.398Z,26.62
2018-07-06T17:53:56.549Z,26.54
2018-07-06T17:56:25.784Z,26.23
2018-07-06T17:58:54.878Z,25.89
2018-07-06T18:01:24.003Z,25.74
2018-07-06T18:03:53.137Z,25.45
2018-07-06T18:06:22.285Z,25.42
2018-07-06T18:08:51.436Z,25.43
2018-07-06T18:11:20.573Z,25.92
2018-07-06T18:13:49.717Z,25.49
2018-07-06T18:16:18.837Z,24.17
2018-07-06T18:18:47.979Z,23.78
2018-07-06T18:21:17.445Z,23.55
2018-07-06T18:23:46.580Z,23.43
2018-07-06T18:26:15.707Z,23.09
2018-07-06T18:28:44.869Z,23.06
2018-07-06T18:31:13.992Z,23.03
2018-07-06T18:33:42.928Z,22.90
2018-07-06T18:36:12.072Z,22.78
2018-07-06T18:38:40.967Z,22.78
2018-07-06T18:41:10.117Z,22.65
2018-07-06T18:43:39.255Z,22.55
2018-07-06T18:46:08.417Z,22.45
2018-07-06T18:48:37.555Z,22.37
2018-07-06T18:51:07.060Z,22.36
2018-07-06T18:53:36.177Z,22.16
2018-07-06T18:56:05.381Z,22.12
2018-07-06T18:58:34.509Z,22.08
2018-07-06T19:01:03.646Z,22.05
2018-07-06T19:03:32.802Z,21.96
2018-07-06T19:06:01.930Z,21.89
2018-07-06T19:08:31.077Z,21.86
2018-07-06T19:11:00.202Z,21.67
2018-07-06T19:13:29.323Z,21.66
2018-07-06T19:15:58.468Z,21.58
2018-07-06T19:18:27.604Z,21.49
2018-07-06T19:20:56.795Z,21.38
2018-07-06T19:23:25.967Z,21.25
2018-07-06T19:25:54.901Z,21.22
2018-07-06T19:28:23.808Z,21.04
2018-07-06T19:30:52.945Z,20.98
2018-07-06T19:33:22.075Z,20.99
2018-07-06T19:35:51.235Z,20.88
2018-07-06T19:38:20.344Z,20.91
2018-07-06T19:40:49.493Z,20.79
2018-07-06T19:43:18.638Z,20.73
2018-07-06T19:45:47.773Z,20.64
2018-07-06T19:48:16.895Z,20.70
2018-07-06T19:50:46.024Z,20.80
2018-07-06T19:53:15.159Z,20.87
2018-07-06T19:55:44.301Z,20.70
2018-07-06T19:58:13.448Z,20.83
2018-07-06T20:00:42.573Z,20.71
2018-07-06T20:03:11.709Z,20.66
2018-07-06T20:05:40.899Z,20.59
2018-07-06T20:08:10.016Z,20.54
2018-07-06T20:10:39.149Z,20.62
2018-07-06T20:13:08.325Z,20.68
2018-07-06T20:15:37.241Z,20.54
2018-07-06T20:18:06.397Z,20.62
2018-07-06T20:20:35.503Z,20.78
2018-07-06T20:23:04.640Z,20.48
2018-07-06T20:25:33.772Z,20.31
2018-07-06T20:28:02.908Z,20.17
2018-07-06T20:30:32.050Z,20.69
2018-07-06T20:33:01.189Z,20.50
2018-07-06T20:35:30.316Z,20.53
2018-07-06T20:37:59.443Z,20.23
2018-07-06T20:40:28.577Z,20.15
2018-07-06T20:42:57.713Z,20.08
2018-07-06T20:45:26.853Z,20.16
2018-07-06T20:47:55.992Z,19.86
2018-07-06T20:50:25.113Z,19.86
2018-07-06T20:52:54.248Z,19.86
2018-07-06T20:55:23.387Z,19.73
2018-07-06T20:57:52.520Z,19.60
2018-07-06T21:00:21.654Z,19.73
2018-07-06T21:02:50.793Z,19.73
2018-07-06T21:05:19.916Z,19.53
2018-07-06T21:07:49.053Z,19.38
2018-07-06T21:10:18.183Z,19.84
2018-07-06T21:12:47.298Z,19.76
2018-07-06T21:15:16.437Z,19.84
2018-07-06T21:17:45.559Z,19.86
2018-07-06T21:20:14.700Z,19.83
2018-07-06T21:22:43.868Z,19.66
2018-07-06T21:25:13.004Z,19.67
2018-07-06T21:27:42.108Z,19.51
2018-07-06T21:30:11.360Z,19.23
2018-07-06T21:32:40.410Z,19.30
2018-07-06T21:35:09.539Z,19.01
2018-07-06T21:37:38.688Z,19.01
2018-07-06T21:40:07.833Z,18.69
2018-07-06T21:42:36.964Z,18.85
2018-07-06T21:45:06.267Z,18.89
2018-07-06T21:47:35.403Z,18.60
2018-07-06T21:50:04.541Z,18.31
2018-07-06T21:52:33.855Z,18.26
2018-07-06T21:55:02.766Z,18.22
2018-07-06T21:57:31.909Z,18.26
2018-07-06T22:00:01.045Z,18.13
2018-07-06T22:02:29.955Z,18.13
2018-07-06T22:04:59.097Z,18.08
2018-07-06T22:07:28.224Z,17.98
2018-07-06T22:09:57.238Z,17.78
2018-07-06T22:12:26.370Z,17.88
2018-07-06T22:14:55.517Z,17.82
2018-07-06T22:17:24.423Z,17.67
2018-07-06T22:19:53.570Z,17.58
2018-07-06T22:22:22.701Z,17.57
2018-07-06T22:24:51.623Z,17.56
2018-07-06T22:27:20.752Z,17.50
2018-07-06T22:29:49.888Z,17.42
2018-07-06T22:32:19.048Z,17.37
2018-07-06T22:34:48.186Z,17.43
2018-07-06T22:37:17.327Z,17.28
2018-07-06T22:39:46.458Z,17.53
2018-07-06T22:42:15.597Z,17.56
2018-07-06T22:44:44.728Z,17.50
2018-07-06T22:47:13.856Z,17.51
2018-07-06T22:49:42.987Z,17.61
2018-07-06T22:52:12.123Z,17.45
2018-07-06T22:54:41.258Z,17.60
2018-07-06T22:57:10.469Z,17.40
2018-07-06T22:59:39.637Z,17.47
2018-07-06T23:02:08.961Z,17.45
2018-07-06T23:04:38.088Z,17.54
2018-07-06T23:07:07.235Z,17.25
2018-07-06T23:09:36.356Z,17.07
2018-07-06T23:12:05.496Z,17.16
2018-07-06T23:14:34.640Z,16.97
2018-07-06T23:17:03.792Z,16.98
2018-07-06T23:19:32.922Z,17.19
2018-07-06T23:22:02.071Z,17.34
2018-07-06T23:24:31.227Z,17.39
2018-07-06T23:27:00.381Z,17.20
2018-07-06T23:29:29.504Z,17.31
2018-07-06T23:31:58.650Z,17.19
2018-07-06T23:34:27.777Z,17.26
2018-07-06T23:36:56.923Z,17.39
2018-07-06T23:39:26.051Z,17.30
2018-07-06T23:41:55.173Z,17.20
2018-07-06T23:44:24.079Z,17.11
2018-07-06T23:46:53.216Z,16.81
2018-07-06T23:49:22.361Z,16.90
2018-07-06T23:51:51.504Z,16.72
2018-07-06T23:54:20.620Z,16.77
2018-07-06T23:56:49.752Z,16.78
2018-07-06T23:59:18.883Z,16.75
